METAR Data
IDs: Format: Raw Decoded Include TAF

Data at: 0732 UTC 22 Jan 2021

KSYN 220715Z AUTO 30006KT 10SM CLR M15/M19 A3010 RMK AO2 T11541188
KSYN 220655Z AUTO 29007KT 10SM CLR M15/M18 A3011 RMK AO2 T11471185
KSYN 220635Z AUTO 31009KT 10SM CLR M14/M18 A3010 RMK AO2 T11371179
KSYN 220615Z AUTO 31007KT 10SM CLR M14/M18 A3008 RMK AO2 T11401180
KSYN 220555Z AUTO 31009KT 10SM CLR M13/M17 A3008 RMK AO2 T11341175 11070 21136 400101136
KSYN 220535Z AUTO 31009G16KT 10SM CLR M13/M17 A3008 RMK AO2 T11271173
KSYN 220515Z AUTO 31009KT 10SM CLR M13/M17 A3007 RMK AO2 T11271172
KSYN 220455Z AUTO 31008KT 10SM CLR M12/M17 A3006 RMK AO2 T11251170
KSYN 220435Z AUTO 31008KT 10SM CLR M12/M17 A3005 RMK AO2 T11221167
KSYN 220415Z AUTO 31009KT 10SM CLR M12/M16 A3004 RMK AO2 T11211165
KSYN 220355Z AUTO 31008KT 10SM CLR M12/M16 A3003 RMK AO2 T11161162
KSYN 220335Z AUTO 31010KT 10SM CLR M11/M16 A3002 RMK AO2 T11151160
KSYN 220315Z AUTO 31010KT 10SM CLR M11/M16 A3001 RMK AO2 T11111157
KSYN 220255Z AUTO 30013KT 10SM CLR M11/M15 A3000 RMK AO2 T11081155
KSYN 220235Z AUTO 30014KT 10SM CLR M10/M15 A2999 RMK AO2 T11051153
KSYN 220215Z AUTO 30013KT 10SM CLR M10/M15 A2998 RMK AO2 T11021150
KSYN 220155Z AUTO 30014KT 10SM CLR M10/M15 A2997 RMK AO2 T10981147
KSYN 220135Z AUTO 30016KT 10SM CLR M09/M14 A2996 RMK AO2 T10921142
KSYN 220115Z AUTO 30015KT 10SM CLR M09/M14 A2995 RMK AO2 T10881139
KSYN 220055Z AUTO 30016G24KT 10SM SCT075 M08/M14 A2994 RMK AO2 T10811138
KSYN 220035Z AUTO 30016G21KT 10SM BKN075 M08/M13 A2993 RMK AO2 T10801133
KSYN 220015Z AUTO 30015KT 10SM CLR M07/M13 A2991 RMK AO2 T10751130
KSYN 212355Z AUTO 29018KT 10SM CLR M07/M13 A2989 RMK AO2 T10681126 10010 21068
KSYN 212335Z AUTO 29017KT 10SM CLR M06/M12 A2988 RMK AO2 T10591120
KSYN 212315Z AUTO 30016KT 10SM CLR M05/M12 A2986 RMK AO2 T10511117
KSYN 212255Z AUTO 30016KT 10SM CLR M04/M12 A2985 RMK AO2 T10421118
KSYN 212235Z AUTO 31020G26KT 10SM CLR M03/M12 A2983 RMK AO2 T10321116
KSYN 212215Z AUTO 31018G21KT 10SM CLR M02/M09 A2981 RMK AO2 T10171088
KSYN 212155Z AUTO 29023G28KT 10SM SCT032 SCT040 M01/M07 A2980 RMK AO2 T10101070
KSYN 212135Z AUTO 29023G28KT 10SM SCT032 BKN040 00/M06 A2979 RMK AO2 T00021056
KSYN 212115Z AUTO 29021G28KT 10SM SCT040 00/M05 A2978 RMK AO2 T00001055
KSYN 212055Z AUTO 30018G28KT 10SM OVC040 00/M05 A2977 RMK AO2 T00001055
KSYN 212035Z AUTO 30023G29KT 10SM OVC037 00/M05 A2977 RMK AO2 T00001053
KSYN 212015Z AUTO 31018G24KT 10SM BKN032 OVC039 00/M05 A2976 RMK AO2 T00001051
KSYN 211955Z AUTO 30019G25KT 10SM BKN030 OVC034 01/M04 A2975 RMK AO2 T00061040
KSYN 211935Z AUTO 29017G24KT 10SM BKN034 BKN043 OVC060 01/M04 A2975 RMK AO2 T00061041
KSYN 211915Z AUTO 29019G22KT 10SM BKN031 BKN038 OVC060 01/M04 A2974 RMK AO2 T00051043
KSYN 211855Z AUTO 30018G22KT 10SM BKN031 OVC037 01/M04 A2975 RMK AO2 T00061041
KSYN 211835Z AUTO 29018G22KT 10SM BKN031 OVC036 01/M04 A2975 RMK AO2 T00061042
KSYN 211815Z AUTO 29018KT 10SM BKN031 01/M04 A2974 RMK AO2 T00081041
KSYN 211755Z AUTO 29018G21KT 10SM SCT029 01/M04 A2974 RMK AO2 T00061044 10006 21010
KSYN 211735Z AUTO 28017KT 10SM SCT029 00/M04 A2974 RMK AO2 T00041045
KSYN 211715Z AUTO 28016G21KT 10SM CLR 00/M05 A2974 RMK AO2 T00021048
KSYN 211655Z AUTO 28016KT 10SM CLR 00/M05 A2973 RMK AO2 T00001050
KSYN 211635Z AUTO 28015G20KT 10SM CLR 00/M05 A2973 RMK AO2 T10011052
KSYN 211615Z AUTO 28013G21KT 10SM CLR 00/M05 A2973 RMK AO2 T10021055
KSYN 211555Z AUTO 27013G20KT 10SM CLR 00/M06 A2973 RMK AO2 T10051056
KSYN 211535Z AUTO 28015G20KT 10SM CLR 00/M06 A2972 RMK AO2 T10051058
KSYN 211515Z AUTO 27013G21KT 10SM CLR M01/M06 A2971 RMK AO2 T10071060
KSYN 211455Z AUTO 27012G18KT 10SM CLR M01/M06 A2970 RMK AO2 T10061060
KSYN 211435Z AUTO 27014KT 10SM CLR M01/M06 A2970 RMK AO2 T10071061
KSYN 211415Z AUTO 27016G21KT 10SM CLR M01/M06 A2969 RMK AO2 T10061061
KSYN 211355Z AUTO 27016G21KT 10SM CLR M01/M06 A2969 RMK AO2 T10061062
KSYN 211335Z AUTO 27016G19KT 10SM CLR 00/M06 A2968 RMK AO2 T10051062